Time;durP1;ratioP1;P1;durP2;ratioP2;P2;SDS_P1;SDS_P2;PMS_P1;PMS_P2;Temp;Humidity;BMP_temperature;BMP_pressure;BME280_temperature;BME280_humidity;BME280_pressure;Samples;Min_cycle;Max_cycle;Signal;HPM_P1;HPM_P2
2022/07/05 00:00:19;;;;;;;;;;;16.50;99.90;;;;;;8381739;28;19936;-76
2022/07/05 00:04:21;;;;;;;;;;;16.40;99.90;;;;;;8372252;28;19944;-76
2022/07/05 00:08:23;;;;;;;;;;;16.40;99.90;;;;;;8371090;28;20402;-76
2022/07/05 00:12:27;;;;;;;;;;;16.40;99.90;;;;;;8370599;28;19924;-76
2022/07/05 03:50:04;;;;;;;;;;;14.30;99.90;;;;;;7184342;28;19947;-75
2022/07/05 03:54:05;;;;;;;;;;;14.30;99.90;;;;;;8369859;28;19924;-75
2022/07/05 03:58:07;;;;;;;;;;;14.30;99.90;;;;;;8389681;28;20399;-75
2022/07/05 04:02:09;;;;;;;;;;;14.30;99.90;;;;;;8384997;28;20341;-75
2022/07/05 04:06:10;;;;;;;;;;;14.20;99.90;;;;;;8372081;28;19933;-75
2022/07/05 04:10:12;;;;;;;;;;;14.20;99.90;;;;;;8384988;28;20375;-75
2022/07/05 04:14:14;;;;;;;;;;;14.20;99.90;;;;;;8380146;28;19932;-75
2022/07/05 04:18:16;;;;;;;;;;;14.20;99.90;;;;;;8370807;28;20658;-75
2022/07/05 04:22:17;;;;;;;;;;;14.20;99.90;;;;;;8389112;28;19959;-75
2022/07/05 04:26:19;;;;;;;;;;;14.20;99.90;;;;;;8378102;28;19970;-75
2022/07/05 04:30:22;;;;;;;;;;;14.20;99.90;;;;;;8376043;28;19929;-75
2022/07/05 04:34:23;;;;;;;;;;;14.30;99.90;;;;;;8376544;28;19924;-75
2022/07/05 04:38:25;;;;;;;;;;;14.30;99.90;;;;;;8362718;28;19928;-75
2022/07/05 04:42:27;;;;;;;;;;;14.30;99.90;;;;;;8374610;28;20402;-75
2022/07/05 04:46:28;;;;;;;;;;;14.40;99.90;;;;;;8377733;28;19933;-75
2022/07/05 04:50:30;;;;;;;;;;;14.40;99.90;;;;;;8416768;28;19931;-75
2022/07/05 04:54:32;;;;;;;;;;;14.40;99.90;;;;;;8374560;28;19932;-75
2022/07/05 04:58:34;;;;;;;;;;;14.50;99.90;;;;;;8386576;28;19931;-76
2022/07/05 05:02:35;;;;;;;;;;;14.60;99.90;;;;;;8359835;28;20548;-75
2022/07/05 05:06:37;;;;;;;;;;;14.60;99.90;;;;;;8377944;28;20398;-75
2022/07/05 05:10:39;;;;;;;;;;;14.80;99.90;;;;;;8380146;28;19931;-75
2022/07/05 05:14:40;;;;;;;;;;;14.80;99.90;;;;;;8378818;28;20298;-75
2022/07/05 05:18:42;;;;;;;;;;;14.90;99.90;;;;;;8377377;28;20320;-75
2022/07/05 05:22:44;;;;;;;;;;;15.10;99.90;;;;;;8383742;28;20441;-75
2022/07/05 05:26:45;;;;;;;;;;;15.20;99.90;;;;;;8364016;28;20414;-75
2022/07/05 05:30:47;;;;;;;;;;;15.40;99.90;;;;;;8369251;28;19928;-76
2022/07/05 05:34:49;;;;;;;;;;;15.60;99.90;;;;;;8370850;28;20255;-75
2022/07/05 05:38:50;;;;;;;;;;;15.70;99.90;;;;;;8379765;28;19935;-75
2022/07/05 05:42:53;;;;;;;;;;;15.80;99.90;;;;;;8360963;28;19924;-75
2022/07/05 05:46:54;;;;;;;;;;;15.90;99.90;;;;;;8378289;28;19939;-75
2022/07/05 05:50:56;;;;;;;;;;;16.10;99.90;;;;;;8367582;28;19947;-75
2022/07/05 05:54:58;;;;;;;;;;;16.20;99.90;;;;;;8368654;28;19924;-75
2022/07/05 05:59:00;;;;;;;;;;;16.30;99.90;;;;;;8373663;28;20913;-75
2022/07/05 06:03:03;;;;;;;;;;;16.40;99.90;;;;;;8360743;28;20289;-77
2022/07/05 06:07:05;;;;;;;;;;;16.50;99.90;;;;;;8367491;28;19966;-78
2022/07/05 06:11:07;;;;;;;;;;;16.60;99.90;;;;;;8359765;28;20610;-77
2022/07/05 06:15:08;;;;;;;;;;;16.80;99.90;;;;;;8366942;28;19932;-77
2022/07/05 06:19:10;;;;;;;;;;;16.90;99.90;;;;;;8361307;28;20312;-77
2022/07/05 06:23:12;;;;;;;;;;;17.10;99.90;;;;;;8373518;28;20384;-77
2022/07/05 06:27:13;;;;;;;;;;;17.20;99.90;;;;;;8368960;28;20372;-77
2022/07/05 06:31:15;;;;;;;;;;;17.30;99.90;;;;;;8343096;28;21079;-77
2022/07/05 06:35:17;;;;;;;;;;;17.40;99.90;;;;;;8368190;28;19935;-77
2022/07/05 06:39:18;;;;;;;;;;;17.50;99.90;;;;;;8371882;28;19928;-77
2022/07/05 06:43:20;;;;;;;;;;;17.60;99.90;;;;;;8368373;28;19952;-77
2022/07/05 06:47:22;;;;;;;;;;;17.70;99.90;;;;;;8366840;28;19925;-77
2022/07/05 06:51:23;;;;;;;;;;;17.70;99.90;;;;;;8381194;28;19933;-77
2022/07/05 06:55:25;;;;;;;;;;;17.70;99.90;;;;;;8365701;28;19924;-76
2022/07/05 06:59:27;;;;;;;;;;;17.80;99.90;;;;;;8371498;28;19935;-76
2022/07/05 07:03:49;;;;;;;;;;;17.80;99.90;;;;;;8371708;28;19979;-77
2022/07/05 07:12:30;;;;;;;;;;;17.80;99.90;;;;;;8370140;28;20344;-77
2022/07/05 07:16:32;;;;;;;;;;;17.80;99.90;;;;;;8372824;28;20376;-77
2022/07/05 07:20:34;;;;;;;;;;;17.80;99.90;;;;;;8376617;28;19928;-77
2022/07/05 07:24:36;;;;;;;;;;;17.80;99.90;;;;;;8379670;28;19932;-77
2022/07/05 07:28:37;;;;;;;;;;;17.90;99.90;;;;;;8378138;28;20024;-77
2022/07/05 07:32:39;;;;;;;;;;;17.90;99.90;;;;;;8378665;28;19932;-77
2022/07/05 07:36:41;;;;;;;;;;;17.90;99.90;;;;;;8360950;28;19933;-77
2022/07/05 07:40:42;;;;;;;;;;;18.00;99.90;;;;;;8375802;28;19933;-77
2022/07/05 07:44:44;;;;;;;;;;;18.00;99.90;;;;;;8375524;28;20000;-77
2022/07/05 07:48:46;;;;;;;;;;;18.10;99.90;;;;;;8376361;28;21056;-77
2022/07/05 07:52:48;;;;;;;;;;;18.10;99.90;;;;;;8374319;28;19929;-77
2022/07/05 07:56:49;;;;;;;;;;;18.20;99.90;;;;;;8376073;28;19928;-76
2022/07/05 08:00:51;;;;;;;;;;;18.20;99.90;;;;;;8393033;28;19928;-77
2022/07/05 08:04:53;;;;;;;;;;;18.30;99.90;;;;;;8389162;28;19939;-77
2022/07/05 08:08:54;;;;;;;;;;;18.30;99.90;;;;;;8374663;28;19925;-77
2022/07/05 08:12:56;;;;;;;;;;;18.30;99.90;;;;;;8376410;28;19925;-77
2022/07/05 08:16:58;;;;;;;;;;;18.40;99.90;;;;;;8377960;28;20303;-77
2022/07/05 08:25:20;;;;;;;;;;;18.50;99.90;;;;;;8379061;28;19925;-77
2022/07/05 08:29:22;;;;;;;;;;;18.50;99.90;;;;;;8391222;28;19932;-77
2022/07/05 08:33:24;;;;;;;;;;;18.50;99.90;;;;;;8374183;28;19944;-77
2022/07/05 08:37:26;;;;;;;;;;;18.60;99.90;;;;;;8373711;28;19925;-77
2022/07/05 08:41:28;;;;;;;;;;;18.60;99.90;;;;;;8376423;28;19939;-77
2022/07/05 08:45:30;;;;;;;;;;;18.70;99.90;;;;;;8373635;28;19935;-76
2022/07/05 08:49:33;;;;;;;;;;;18.80;99.90;;;;;;8378880;28;19932;-76
2022/07/05 08:53:35;;;;;;;;;;;18.90;99.90;;;;;;8371473;28;20277;-77
2022/07/05 08:57:36;;;;;;;;;;;19.00;99.90;;;;;;8375078;28;19935;-76
2022/07/05 09:01:38;;;;;;;;;;;19.10;99.90;;;;;;8374785;28;20391;-78
2022/07/05 09:05:43;;;;;;;;;;;19.20;99.90;;;;;;8375676;28;20299;-77
2022/07/05 09:09:46;;;;;;;;;;;19.30;99.90;;;;;;8373447;28;19936;-77
2022/07/05 09:13:48;;;;;;;;;;;19.40;99.90;;;;;;8363367;28;19933;-77
2022/07/05 09:18:10;;;;;;;;;;;19.40;99.90;;;;;;8370209;28;20015;-77
2022/07/05 09:22:12;;;;;;;;;;;19.40;99.90;;;;;;8346365;28;19933;-78
2022/07/05 09:26:14;;;;;;;;;;;19.40;99.90;;;;;;8360327;28;20288;-76
2022/07/05 09:30:30;;;;;;;;;;;19.40;99.90;;;;;;8365371;28;20356;-78
2022/07/05 09:34:30;;;;;;;;;;;19.50;99.90;;;;;;8362843;28;19936;-76
2022/07/05 09:38:33;;;;;;;;;;;19.50;99.90;;;;;;8366834;28;19924;-77
2022/07/05 09:42:35;;;;;;;;;;;19.50;99.90;;;;;;8363153;28;19928;-76
2022/07/05 09:46:36;;;;;;;;;;;19.50;99.90;;;;;;8369774;28;19939;-76
2022/07/05 09:50:38;;;;;;;;;;;19.50;99.90;;;;;;8369407;28;19933;-76
2022/07/05 09:55:10;;;;;;;;;;;19.40;99.90;;;;;;8364688;28;20016;-76
2022/07/05 09:59:18;;;;;;;;;;;19.40;99.90;;;;;;8383829;28;19955;-78
2022/07/05 10:03:19;;;;;;;;;;;19.40;99.90;;;;;;8370231;28;19921;-77
2022/07/05 10:07:31;;;;;;;;;;;19.40;99.90;;;;;;8370543;28;19928;-77
2022/07/05 10:11:34;;;;;;;;;;;19.50;99.90;;;;;;8373142;28;19920;-77
2022/07/05 10:15:36;;;;;;;;;;;19.60;99.90;;;;;;8370981;28;19931;-78
2022/07/05 10:19:40;;;;;;;;;;;19.80;99.90;;;;;;8373005;28;19921;-77
2022/07/05 10:23:47;;;;;;;;;;;19.90;99.90;;;;;;8384521;28;20043;-77
2022/07/05 10:27:53;;;;;;;;;;;19.90;99.90;;;;;;8371565;28;19928;-77
2022/07/05 10:31:55;;;;;;;;;;;19.90;99.90;;;;;;8368718;28;19932;-76
2022/07/05 10:35:57;;;;;;;;;;;19.90;99.90;;;;;;8372753;28;19920;-76
2022/07/05 10:40:00;;;;;;;;;;;20.00;99.90;;;;;;8368486;28;19932;-77
2022/07/05 10:44:02;;;;;;;;;;;20.20;99.90;;;;;;8370880;28;19971;-77
2022/07/05 10:48:10;;;;;;;;;;;20.40;99.90;;;;;;8369449;28;19950;-77
2022/07/05 10:52:24;;;;;;;;;;;20.50;99.90;;;;;;8386253;28;19943;-76
2022/07/05 10:56:26;;;;;;;;;;;20.50;99.90;;;;;;8374673;28;19927;-75
2022/07/05 11:00:27;;;;;;;;;;;20.40;99.90;;;;;;8383366;28;19971;-75
2022/07/05 11:04:31;;;;;;;;;;;20.30;99.90;;;;;;8380422;28;19939;-78
2022/07/05 11:08:51;;;;;;;;;;;20.10;99.90;;;;;;8382287;28;19950;-75
2022/07/05 11:12:53;;;;;;;;;;;20.00;99.90;;;;;;8382591;28;19924;-78
2022/07/05 11:17:11;;;;;;;;;;;19.90;99.90;;;;;;8384486;28;19924;-76
2022/07/05 11:21:33;;;;;;;;;;;19.90;99.90;;;;;;8380107;28;19920;-77
2022/07/05 11:25:37;;;;;;;;;;;20.10;99.90;;;;;;8382819;28;19925;-76
2022/07/05 11:29:41;;;;;;;;;;;20.20;99.90;;;;;;8397323;28;19927;-76
2022/07/05 11:33:44;;;;;;;;;;;20.20;99.90;;;;;;8386046;28;19927;-77
2022/07/05 11:37:59;;;;;;;;;;;20.10;99.90;;;;;;8376415;28;20290;-76
2022/07/05 11:42:22;;;;;;;;;;;20.10;99.90;;;;;;8381906;28;19920;-76
2022/07/05 11:46:23;;;;;;;;;;;20.10;99.90;;;;;;8380923;28;19920;-77
2022/07/05 11:50:45;;;;;;;;;;;20.10;99.90;;;;;;8380093;28;20030;-75
2022/07/05 11:54:48;;;;;;;;;;;20.20;99.90;;;;;;8382142;28;19927;-76
2022/07/05 11:58:50;;;;;;;;;;;20.20;99.90;;;;;;8383868;28;19958;-76
2022/07/05 12:02:52;;;;;;;;;;;20.30;99.90;;;;;;8399289;28;19928;-76
2022/07/05 12:06:55;;;;;;;;;;;20.30;99.90;;;;;;8376573;28;19982;-77
2022/07/05 12:15:19;;;;;;;;;;;20.20;99.90;;;;;;8375758;28;19927;-75
2022/07/05 12:19:25;;;;;;;;;;;20.30;99.90;;;;;;8363609;28;19928;-77
2022/07/05 12:23:27;;;;;;;;;;;20.30;99.90;;;;;;8376308;28;20309;-77
2022/07/05 12:27:29;;;;;;;;;;;20.30;99.90;;;;;;8375172;28;19924;-76
2022/07/05 12:31:33;;;;;;;;;;;20.40;99.90;;;;;;8375817;28;19921;-76
2022/07/05 12:35:39;;;;;;;;;;;20.30;99.90;;;;;;8375308;28;19927;-75
2022/07/05 12:39:41;;;;;;;;;;;20.30;99.90;;;;;;8373856;28;19939;-76
2022/07/05 12:43:49;;;;;;;;;;;20.40;99.90;;;;;;8374260;28;20299;-76
2022/07/05 12:47:53;;;;;;;;;;;20.40;99.90;;;;;;8376158;28;19931;-77
2022/07/05 12:52:02;;;;;;;;;;;20.50;99.90;;;;;;8375778;28;19927;-78
2022/07/05 13:00:28;;;;;;;;;;;20.70;99.90;;;;;;8374122;28;19943;-76
2022/07/05 13:04:30;;;;;;;;;;;20.80;99.90;;;;;;8375261;28;19929;-76
2022/07/05 13:08:32;;;;;;;;;;;20.80;99.90;;;;;;8356933;28;19932;-76
2022/07/05 13:12:34;;;;;;;;;;;20.80;99.90;;;;;;8373560;28;19924;-77
2022/07/05 13:16:35;;;;;;;;;;;20.90;99.90;;;;;;8375353;28;19920;-75
2022/07/05 13:20:37;;;;;;;;;;;20.90;99.90;;;;;;8374337;28;20011;-76
2022/07/05 13:24:39;;;;;;;;;;;20.90;99.90;;;;;;8387547;28;19924;-75
2022/07/05 13:28:41;;;;;;;;;;;21.00;99.90;;;;;;8376970;28;19920;-76
2022/07/05 13:32:42;;;;;;;;;;;21.00;99.90;;;;;;8375491;28;19921;-77
2022/07/05 13:36:45;;;;;;;;;;;21.00;99.90;;;;;;8375588;28;19927;-77
2022/07/05 13:40:46;;;;;;;;;;;21.00;99.90;;;;;;8365271;28;20264;-75
2022/07/05 13:44:48;;;;;;;;;;;20.80;99.90;;;;;;8373105;28;19924;-77
2022/07/05 13:48:50;;;;;;;;;;;20.70;99.90;;;;;;8372315;28;19924;-77
2022/07/05 13:52:51;;;;;;;;;;;20.60;99.90;;;;;;8377599;28;19928;-76
2022/07/05 13:56:53;;;;;;;;;;;20.80;99.90;;;;;;8366822;28;20027;-77
2022/07/05 14:00:55;;;;;;;;;;;20.90;99.90;;;;;;8366164;28;19932;-75
2022/07/05 14:04:57;;;;;;;;;;;21.00;99.90;;;;;;8360720;28;20658;-76
2022/07/05 14:08:59;;;;;;;;;;;21.00;99.90;;;;;;8372803;28;20363;-76
2022/07/05 14:13:01;;;;;;;;;;;21.10;99.90;;;;;;8364478;28;19943;-76
2022/07/05 14:17:02;;;;;;;;;;;21.20;99.90;;;;;;8368271;28;19921;-76
2022/07/05 14:21:04;;;;;;;;;;;21.30;99.90;;;;;;8372940;28;19928;-75
2022/07/05 14:25:06;;;;;;;;;;;21.20;99.90;;;;;;8363257;28;20004;-76
2022/07/05 14:29:08;;;;;;;;;;;21.20;99.90;;;;;;8363792;28;19920;-76
2022/07/05 14:33:12;;;;;;;;;;;21.30;99.90;;;;;;8370368;28;19924;-76
2022/07/05 14:37:14;;;;;;;;;;;21.20;99.90;;;;;;8371352;28;19920;-77
2022/07/05 14:41:16;;;;;;;;;;;21.10;99.90;;;;;;8375327;28;19925;-76
2022/07/05 14:45:18;;;;;;;;;;;21.00;99.90;;;;;;8364317;28;19928;-77
2022/07/05 14:49:23;;;;;;;;;;;21.20;99.90;;;;;;8365406;28;20318;-77
2022/07/05 14:53:25;;;;;;;;;;;21.30;99.90;;;;;;8333695;28;20370;-77
2022/07/05 14:57:27;;;;;;;;;;;21.60;99.90;;;;;;8330785;28;20371;-75
2022/07/05 15:01:28;;;;;;;;;;;21.70;99.90;;;;;;8327925;28;19931;-76
2022/07/05 15:05:30;;;;;;;;;;;21.40;99.90;;;;;;8328278;28;19925;-76
2022/07/05 15:09:32;;;;;;;;;;;21.20;99.90;;;;;;8340667;28;19929;-77
2022/07/05 15:13:34;;;;;;;;;;;21.00;99.90;;;;;;8332996;28;19921;-76
2022/07/05 15:17:37;;;;;;;;;;;21.00;99.90;;;;;;8331857;28;19928;-77
2022/07/05 15:21:39;;;;;;;;;;;21.00;99.90;;;;;;8329458;28;19952;-77
2022/07/05 15:25:41;;;;;;;;;;;20.90;99.90;;;;;;8329009;28;19928;-76
2022/07/05 15:29:42;;;;;;;;;;;21.00;99.90;;;;;;8336284;28;20292;-77
2022/07/05 15:33:44;;;;;;;;;;;21.10;99.90;;;;;;8332711;28;20253;-77
2022/07/05 15:37:46;;;;;;;;;;;21.20;99.90;;;;;;8331615;28;19944;-77
2022/07/05 15:41:47;;;;;;;;;;;21.20;99.90;;;;;;8332576;28;19928;-76
2022/07/05 15:45:49;;;;;;;;;;;21.20;99.90;;;;;;8333979;28;19928;-76
2022/07/05 15:49:50;;;;;;;;;;;21.30;99.90;;;;;;8323149;28;19920;-76
2022/07/05 15:53:52;;;;;;;;;;;21.10;99.90;;;;;;8376067;28;19961;-76
2022/07/05 15:57:54;;;;;;;;;;;21.10;99.90;;;;;;8365827;28;20380;-76
2022/07/05 16:01:55;;;;;;;;;;;21.10;99.90;;;;;;8369258;28;19924;-75
2022/07/05 16:05:58;;;;;;;;;;;20.90;99.90;;;;;;8363437;28;19932;-76
2022/07/05 16:09:59;;;;;;;;;;;20.70;99.90;;;;;;8377407;28;19928;-76
2022/07/05 16:14:21;;;;;;;;;;;20.90;99.90;;;;;;8366332;28;20016;-76
2022/07/05 16:18:23;;;;;;;;;;;21.20;99.90;;;;;;8358400;28;19937;-77
2022/07/05 16:22:25;;;;;;;;;;;21.20;99.90;;;;;;8364545;28;19920;-76
2022/07/05 16:26:27;;;;;;;;;;;21.10;99.90;;;;;;8365373;28;19924;-76
2022/07/05 16:30:28;;;;;;;;;;;20.80;99.90;;;;;;8356814;28;19936;-76
2022/07/05 16:34:30;;;;;;;;;;;20.70;99.90;;;;;;8376670;28;19928;-77
2022/07/05 16:38:32;;;;;;;;;;;20.80;99.90;;;;;;8360588;28;19924;-77
2022/07/05 16:42:33;;;;;;;;;;;20.90;99.90;;;;;;8361497;28;20364;-77
2022/07/05 16:46:35;;;;;;;;;;;20.80;99.90;;;;;;8374826;28;20221;-76
2022/07/05 16:50:38;;;;;;;;;;;20.80;99.90;;;;;;8359892;28;19970;-77
2022/07/05 16:54:43;;;;;;;;;;;20.80;99.90;;;;;;8365184;28;20046;-76
2022/07/05 16:58:46;;;;;;;;;;;20.70;99.90;;;;;;8360366;28;19928;-76
2022/07/05 17:02:48;;;;;;;;;;;20.40;99.90;;;;;;8369526;28;19925;-76
2022/07/05 17:06:49;;;;;;;;;;;20.20;99.90;;;;;;8363930;28;20304;-76
2022/07/05 17:10:51;;;;;;;;;;;20.10;99.90;;;;;;8367133;28;19927;-78
2022/07/05 17:14:53;;;;;;;;;;;20.10;99.90;;;;;;8375510;28;20121;-77
2022/07/05 17:18:56;;;;;;;;;;;19.90;99.90;;;;;;8380551;28;19986;-77
2022/07/05 17:22:57;;;;;;;;;;;19.80;99.90;;;;;;8353421;28;19973;-77
2022/07/05 17:26:59;;;;;;;;;;;19.80;99.90;;;;;;8363784;28;19932;-77
2022/07/05 17:31:01;;;;;;;;;;;19.90;99.90;;;;;;8357599;28;19931;-76
2022/07/05 17:35:03;;;;;;;;;;;20.00;99.90;;;;;;8372963;28;19974;-76
2022/07/05 17:39:05;;;;;;;;;;;20.10;99.90;;;;;;8358310;28;19924;-76
2022/07/05 17:43:07;;;;;;;;;;;20.10;99.90;;;;;;8356157;28;19927;-76
2022/07/05 17:47:08;;;;;;;;;;;20.00;99.90;;;;;;8374371;28;19920;-77
2022/07/05 17:51:11;;;;;;;;;;;19.90;99.90;;;;;;8364713;28;19931;-77
2022/07/05 17:55:12;;;;;;;;;;;19.80;99.90;;;;;;8356744;28;19924;-77
2022/07/05 17:59:14;;;;;;;;;;;19.70;99.90;;;;;;8372039;28;19951;-77
2022/07/05 18:03:16;;;;;;;;;;;19.60;99.90;;;;;;8377828;28;19928;-76
2022/07/05 18:07:18;;;;;;;;;;;19.50;99.90;;;;;;8362486;28;19996;-77
2022/07/05 18:11:19;;;;;;;;;;;19.50;99.90;;;;;;8372647;28;19925;-77
2022/07/05 18:15:22;;;;;;;;;;;19.50;99.90;;;;;;8358388;28;20629;-77
2022/07/05 18:19:23;;;;;;;;;;;19.50;99.90;;;;;;8362579;28;19921;-77
2022/07/05 18:23:25;;;;;;;;;;;19.50;99.90;;;;;;8374592;28;19929;-77
2022/07/05 18:27:27;;;;;;;;;;;19.40;99.90;;;;;;8374000;28;19924;-77
2022/07/05 18:31:28;;;;;;;;;;;19.30;99.90;;;;;;8371279;28;19924;-77
2022/07/05 18:35:30;;;;;;;;;;;19.10;99.90;;;;;;8360818;28;19924;-76
2022/07/05 18:39:32;;;;;;;;;;;19.10;99.90;;;;;;8361018;28;19924;-76
2022/07/05 18:43:34;;;;;;;;;;;19.00;99.90;;;;;;8362985;28;20327;-77
2022/07/05 18:47:36;;;;;;;;;;;19.00;99.90;;;;;;8362245;28;19920;-76
2022/07/05 18:51:38;;;;;;;;;;;19.00;99.90;;;;;;8365311;28;19920;-77
2022/07/05 18:55:41;;;;;;;;;;;19.00;99.90;;;;;;8366213;28;19924;-77
2022/07/05 19:00:04;;;;;;;;;;;18.90;99.90;;;;;;8370467;28;20422;-76
2022/07/05 19:04:05;;;;;;;;;;;18.90;99.90;;;;;;8375218;28;19931;-76
2022/07/05 19:16:48;;;;;;;;;;;18.70;99.90;;;;;;8368648;28;20265;-77
2022/07/05 19:20:50;;;;;;;;;;;18.60;99.90;;;;;;8367842;28;19929;-77
2022/07/05 19:25:03;;;;;;;;;;;18.50;99.90;;;;;;8354061;28;19932;-78
2022/07/05 19:29:04;;;;;;;;;;;18.40;99.90;;;;;;8370627;28;19928;-77
2022/07/05 19:33:06;;;;;;;;;;;18.30;99.90;;;;;;8363731;28;19928;-76
2022/07/05 19:37:08;;;;;;;;;;;18.30;99.90;;;;;;8368912;28;20276;-77
2022/07/05 19:41:09;;;;;;;;;;;18.20;99.90;;;;;;8369308;28;19932;-77
2022/07/05 19:45:11;;;;;;;;;;;18.10;99.90;;;;;;8374010;28;20291;-76
2022/07/05 19:49:18;;;;;;;;;;;18.00;99.90;;;;;;8367332;28;19921;-77
2022/07/05 19:53:20;;;;;;;;;;;17.90;99.90;;;;;;8341340;28;19944;-77
2022/07/05 19:57:22;;;;;;;;;;;17.80;99.90;;;;;;8323292;28;19940;-76
2022/07/05 20:01:28;;;;;;;;;;;17.80;99.90;;;;;;8326576;28;20222;-77
2022/07/05 20:05:31;;;;;;;;;;;17.70;99.90;;;;;;8334460;28;19921;-77
2022/07/05 20:09:33;;;;;;;;;;;17.70;99.90;;;;;;8329555;28;20499;-76
2022/07/05 20:13:34;;;;;;;;;;;17.70;99.90;;;;;;8341458;28;19928;-75
2022/07/05 20:17:36;;;;;;;;;;;17.70;99.90;;;;;;8364794;28;19932;-76
2022/07/05 20:21:38;;;;;;;;;;;17.60;99.90;;;;;;8336500;28;19988;-76
2022/07/05 20:25:39;;;;;;;;;;;17.60;99.90;;;;;;8342240;28;19920;-76
2022/07/05 20:29:41;;;;;;;;;;;17.60;99.90;;;;;;8339263;28;20380;-76
2022/07/05 20:33:43;;;;;;;;;;;17.50;99.90;;;;;;8341337;28;19921;-76
2022/07/05 20:37:44;;;;;;;;;;;17.50;99.90;;;;;;8333064;28;19921;-76
2022/07/05 20:41:46;;;;;;;;;;;17.50;99.90;;;;;;8331474;28;22835;-76
2022/07/05 20:45:48;;;;;;;;;;;17.50;99.90;;;;;;8334003;28;19929;-76
2022/07/05 20:49:50;;;;;;;;;;;17.50;99.90;;;;;;8332016;28;19928;-77
2022/07/05 20:53:53;;;;;;;;;;;17.40;99.90;;;;;;8366502;28;19928;-76
2022/07/05 20:57:55;;;;;;;;;;;17.30;99.90;;;;;;8347838;28;20376;-76
2022/07/05 21:01:58;;;;;;;;;;;17.20;99.90;;;;;;8382858;28;20386;-77
2022/07/05 21:06:00;;;;;;;;;;;17.10;99.90;;;;;;8389800;28;19976;-76
2022/07/05 21:10:02;;;;;;;;;;;17.00;99.90;;;;;;8391976;28;20367;-76
2022/07/05 21:14:03;;;;;;;;;;;16.90;99.90;;;;;;8383705;28;20283;-76
2022/07/05 21:18:05;;;;;;;;;;;16.80;99.90;;;;;;8398666;28;19927;-77
2022/07/05 21:22:08;;;;;;;;;;;16.70;99.90;;;;;;8393268;28;19943;-76
2022/07/05 21:26:09;;;;;;;;;;;16.60;99.90;;;;;;8393599;28;19936;-76
2022/07/05 21:30:11;;;;;;;;;;;16.50;99.90;;;;;;8385511;28;19943;-76
2022/07/05 21:34:13;;;;;;;;;;;16.40;99.90;;;;;;8378005;28;19921;-76
2022/07/05 21:38:15;;;;;;;;;;;16.30;99.90;;;;;;8380239;28;20004;-76
2022/07/05 21:42:17;;;;;;;;;;;16.20;99.90;;;;;;8388040;28;20371;-76
2022/07/05 21:46:18;;;;;;;;;;;16.20;99.90;;;;;;8383928;28;19931;-76
2022/07/05 21:50:20;;;;;;;;;;;16.10;99.90;;;;;;8381061;28;19971;-76
2022/07/05 21:54:22;;;;;;;;;;;16.00;99.90;;;;;;8390311;28;20276;-76
2022/07/05 21:58:24;;;;;;;;;;;15.90;99.90;;;;;;8384863;28;20189;-76
2022/07/05 22:06:46;;;;;;;;;;;15.80;99.90;;;;;;8384720;28;19925;-76
2022/07/05 22:10:47;;;;;;;;;;;15.80;99.90;;;;;;8389264;28;19924;-76
2022/07/05 22:14:49;;;;;;;;;;;15.80;99.90;;;;;;8384317;28;19924;-76
2022/07/05 22:18:50;;;;;;;;;;;15.70;99.90;;;;;;8383448;28;19936;-76
2022/07/05 22:22:52;;;;;;;;;;;15.70;99.90;;;;;;8387144;28;19971;-76
2022/07/05 22:26:54;;;;;;;;;;;15.60;99.90;;;;;;8380987;28;19935;-76
2022/07/05 22:30:55;;;;;;;;;;;15.50;99.90;;;;;;8376150;28;19929;-76
2022/07/05 22:34:57;;;;;;;;;;;15.40;99.90;;;;;;8388950;28;19928;-77
2022/07/05 22:38:59;;;;;;;;;;;15.40;99.90;;;;;;8388972;28;19951;-76
2022/07/05 22:43:00;;;;;;;;;;;15.40;99.90;;;;;;8361761;28;19931;-76
2022/07/05 22:47:02;;;;;;;;;;;15.30;99.90;;;;;;8392648;28;20368;-77
2022/07/05 22:51:04;;;;;;;;;;;15.30;99.90;;;;;;8375018;28;19935;-76
2022/07/05 22:55:07;;;;;;;;;;;15.20;99.90;;;;;;8393277;28;19921;-76
2022/07/05 22:59:09;;;;;;;;;;;15.10;99.90;;;;;;8377541;28;19924;-76
2022/07/05 23:03:11;;;;;;;;;;;15.00;99.90;;;;;;8382408;28;19920;-76
2022/07/05 23:07:18;;;;;;;;;;;15.00;99.90;;;;;;8391005;28;19924;-76
2022/07/05 23:11:20;;;;;;;;;;;14.90;99.90;;;;;;8391162;28;20378;-76
2022/07/05 23:15:21;;;;;;;;;;;14.90;99.90;;;;;;8391494;28;20240;-76
2022/07/05 23:19:23;;;;;;;;;;;14.80;99.90;;;;;;8393424;28;19920;-76
2022/07/05 23:23:25;;;;;;;;;;;14.70;99.90;;;;;;8384809;28;19921;-77
2022/07/05 23:27:31;;;;;;;;;;;14.70;99.90;;;;;;8386802;28;19931;-76
2022/07/05 23:31:32;;;;;;;;;;;14.70;99.90;;;;;;8383707;28;19924;-77
2022/07/05 23:35:34;;;;;;;;;;;14.60;99.90;;;;;;8382654;28;19920;-76
2022/07/05 23:39:36;;;;;;;;;;;14.60;99.90;;;;;;8384628;28;19920;-76
2022/07/05 23:43:38;;;;;;;;;;;14.50;99.90;;;;;;8375732;28;20559;-76
2022/07/05 23:47:39;;;;;;;;;;;14.40;99.90;;;;;;8388869;28;19920;-76
2022/07/05 23:51:41;;;;;;;;;;;14.40;99.90;;;;;;8375022;28;19924;-76
2022/07/05 23:55:43;;;;;;;;;;;14.30;99.90;;;;;;8382981;28;20283;-76
2022/07/05 23:59:44;;;;;;;;;;;14.30;99.90;;;;;;8378358;28;19920;-76
